Time;durP1;ratioP1;P1;durP2;ratioP2;P2;SDS_P1;SDS_P2;PMS_P1;PMS_P2;Temp;Humidity;BMP_temperature;BMP_pressure;BME280_temperature;BME280_humidity;BME280_pressure;Samples;Min_cycle;Max_cycle;Signal;HPM_P1;HPM_P2
2023/09/04 00:04:47;;;;;;;4.93;4.43;;;18.90;99.90;;;;;;10444591;28;20697;-78
2023/09/04 00:09:50;;;;;;;5.23;4.83;;;18.90;99.90;;;;;;10461921;28;20229;-78
2023/09/04 00:14:53;;;;;;;5.10;4.80;;;18.80;99.90;;;;;;10460677;28;20717;-78
2023/09/04 00:19:55;;;;;;;4.83;4.53;;;18.80;99.90;;;;;;10459994;28;20233;-78
2023/09/04 00:24:57;;;;;;;4.37;4.17;;;18.70;99.90;;;;;;10460367;28;20198;-78
2023/09/04 00:30:01;;;;;;;5.57;5.07;;;18.70;99.90;;;;;;10459981;28;20210;-78
2023/09/04 00:35:03;;;;;;;5.23;4.90;;;18.70;99.90;;;;;;10460883;28;20208;-78
2023/09/04 00:40:06;;;;;;;5.20;4.90;;;18.70;99.90;;;;;;10461468;28;20244;-78
2023/09/04 00:45:12;;;;;;;5.00;4.70;;;18.60;99.90;;;;;;10461839;28;20194;-78
2023/09/04 00:50:19;;;;;;;4.90;4.60;;;18.60;99.90;;;;;;10442078;28;20225;-78
2023/09/04 00:55:21;;;;;;;5.10;4.80;;;18.60;99.90;;;;;;10441977;28;20261;-78
2023/09/04 01:00:27;;;;;;;5.87;5.33;;;18.50;99.90;;;;;;10455611;28;20225;-78
2023/09/04 01:05:31;;;;;;;5.40;5.10;;;18.50;99.90;;;;;;10438645;28;20284;-78
2023/09/04 01:10:46;;;;;;;5.40;4.90;;;18.50;99.90;;;;;;10441665;28;20217;-78
2023/09/04 01:15:49;;;;;;;5.40;5.00;;;18.50;99.90;;;;;;10460406;28;20205;-78
2023/09/04 01:21:02;;;;;;;6.20;5.50;;;18.40;99.90;;;;;;10452250;28;20566;-77
2023/09/04 01:26:12;;;;;;;5.90;5.43;;;18.40;99.90;;;;;;10446997;28;20214;-78
2023/09/04 01:31:23;;;;;;;5.20;4.90;;;18.40;99.90;;;;;;10444203;28;20568;-78
2023/09/04 01:36:31;;;;;;;5.70;5.30;;;18.40;99.90;;;;;;10460793;28;20218;-78
2023/09/04 01:41:33;;;;;;;5.63;5.23;;;18.40;99.90;;;;;;10445858;28;20213;-78
2023/09/04 01:46:35;;;;;;;5.60;5.30;;;18.40;99.90;;;;;;10466676;28;20228;-77
2023/09/04 01:51:38;;;;;;;5.33;4.93;;;18.40;99.90;;;;;;10447968;28;20194;-78
2023/09/04 01:56:41;;;;;;;5.90;5.50;;;18.40;99.90;;;;;;10449970;28;20224;-78
2023/09/04 02:01:43;;;;;;;5.80;5.40;;;18.30;99.90;;;;;;10451998;28;20276;-78
2023/09/04 02:06:46;;;;;;;5.30;5.00;;;18.30;99.90;;;;;;10467303;28;20229;-78
2023/09/04 02:11:48;;;;;;;5.30;5.00;;;18.40;99.90;;;;;;10446476;28;20266;-78
2023/09/04 02:16:50;;;;;;;5.23;4.80;;;18.30;99.90;;;;;;10465248;28;20217;-78
2023/09/04 02:21:54;;;;;;;6.10;5.67;;;18.30;99.90;;;;;;10464215;28;20222;-78
2023/09/04 02:26:57;;;;;;;6.50;5.30;;;18.30;99.90;;;;;;10447070;28;20214;-78
2023/09/04 02:31:59;;;;;;;5.80;5.40;;;18.30;99.90;;;;;;10429504;28;20198;-78
2023/09/04 02:37:02;;;;;;;5.20;4.93;;;18.30;99.90;;;;;;10446542;28;20267;-78
2023/09/04 02:42:05;;;;;;;7.20;6.50;;;18.30;99.90;;;;;;10464466;28;20229;-78
2023/09/04 02:47:07;;;;;;;5.57;5.17;;;18.20;99.90;;;;;;10463918;28;20603;-78
2023/09/04 02:52:11;;;;;;;6.13;5.63;;;18.20;99.90;;;;;;10444116;28;20202;-78
2023/09/04 02:57:13;;;;;;;5.63;5.23;;;18.20;99.90;;;;;;10445929;28;20279;-78
2023/09/04 03:02:15;;;;;;;5.63;5.30;;;18.10;99.90;;;;;;10444689;28;20222;-78
2023/09/04 03:07:19;;;;;;;6.10;5.70;;;18.10;99.90;;;;;;10466269;28;20258;-78
2023/09/04 03:12:21;;;;;;;6.43;6.03;;;18.10;99.90;;;;;;10446371;28;20210;-78
2023/09/04 03:17:23;;;;;;;5.80;5.43;;;18.00;99.90;;;;;;10470690;28;20239;-78
2023/09/04 03:22:28;;;;;;;5.83;5.50;;;18.00;99.90;;;;;;10455608;28;20279;-78
2023/09/04 03:27:31;;;;;;;6.30;5.90;;;18.00;99.90;;;;;;10443851;28;20214;-78
2023/09/04 03:32:34;;;;;;;6.97;4.90;;;18.00;99.90;;;;;;10444022;28;20198;-78
2023/09/04 03:37:37;;;;;;;5.87;4.97;;;18.00;99.90;;;;;;10461419;28;20210;-78
2023/09/04 03:42:40;;;;;;;5.93;5.53;;;18.00;99.90;;;;;;10442726;28;20213;-78
2023/09/04 03:47:42;;;;;;;5.60;5.20;;;17.90;99.90;;;;;;10441913;28;20308;-77
2023/09/04 03:52:45;;;;;;;5.60;5.13;;;17.90;99.90;;;;;;10425865;28;20255;-78
2023/09/04 03:57:51;;;;;;;5.80;5.40;;;17.90;99.90;;;;;;10458242;28;20236;-78
2023/09/04 04:02:53;;;;;;;6.10;5.60;;;17.80;99.90;;;;;;10459303;28;20692;-77
2023/09/04 04:07:56;;;;;;;6.07;5.60;;;17.80;99.90;;;;;;10459663;28;20214;-77
2023/09/04 04:12:58;;;;;;;6.30;5.90;;;17.70;99.90;;;;;;10440590;28;20589;-78
2023/09/04 04:18:00;;;;;;;6.77;6.27;;;17.70;99.90;;;;;;10452933;28;20228;-78
2023/09/04 04:23:05;;;;;;;6.20;5.60;;;17.70;99.90;;;;;;10455215;28;20247;-78
2023/09/04 04:28:07;;;;;;;6.67;6.27;;;17.60;99.90;;;;;;10440359;28;20221;-78
2023/09/04 04:33:09;;;;;;;6.50;5.53;;;17.60;99.90;;;;;;10457539;28;20277;-78
2023/09/04 04:38:13;;;;;;;6.80;6.30;;;17.60;99.90;;;;;;10458510;28;20458;-78
2023/09/04 04:43:15;;;;;;;6.43;5.97;;;17.50;99.90;;;;;;10439120;28;20214;-78
2023/09/04 04:48:20;;;;;;;6.17;5.80;;;17.50;99.90;;;;;;10437953;28;20713;-78
2023/09/04 04:53:24;;;;;;;6.30;5.80;;;17.50;99.90;;;;;;10437237;28;20202;-78
2023/09/04 04:58:27;;;;;;;5.47;5.17;;;17.50;99.90;;;;;;10433603;28;20608;-78
2023/09/04 05:03:29;;;;;;;7.00;5.83;;;17.50;99.90;;;;;;10433101;28;20267;-77
2023/09/04 05:08:34;;;;;;;4.77;4.47;;;17.50;99.90;;;;;;10434347;28;20687;-77
2023/09/04 05:13:36;;;;;;;6.20;5.70;;;17.50;99.90;;;;;;10450120;28;20197;-77
2023/09/04 05:18:38;;;;;;;6.20;5.80;;;17.50;99.90;;;;;;10418376;28;20221;-77
2023/09/04 05:23:44;;;;;;;6.20;5.80;;;17.50;99.90;;;;;;10451019;28;20222;-77
2023/09/04 05:28:46;;;;;;;5.93;5.53;;;17.50;99.90;;;;;;10435985;28;20277;-78
2023/09/04 05:33:48;;;;;;;7.57;6.87;;;17.50;99.90;;;;;;10452869;28;20328;-77
2023/09/04 05:38:51;;;;;;;6.40;5.90;;;17.50;99.90;;;;;;10453882;28;20225;-77
2023/09/04 05:43:53;;;;;;;9.90;6.53;;;17.60;99.90;;;;;;10453137;28;20213;-77
2023/09/04 05:48:55;;;;;;;7.10;6.60;;;17.60;99.90;;;;;;10435784;28;20228;-77
2023/09/04 05:53:59;;;;;;;6.00;5.60;;;17.60;99.90;;;;;;10452855;28;20655;-78
2023/09/04 05:59:01;;;;;;;5.67;5.27;;;17.60;99.90;;;;;;10454948;28;20222;-78
2023/09/04 06:04:03;;;;;;;5.93;5.53;;;17.70;99.90;;;;;;10434809;28;20232;-78
2023/09/04 06:09:07;;;;;;;7.57;6.93;;;17.70;99.90;;;;;;10453222;28;20718;-78
2023/09/04 06:14:10;;;;;;;6.60;6.00;;;17.70;99.90;;;;;;10452419;28;20200;-78
2023/09/04 06:19:12;;;;;;;7.10;6.40;;;17.70;99.90;;;;;;10451893;28;20222;-78
2023/09/04 06:24:16;;;;;;;7.70;7.00;;;17.80;99.90;;;;;;10451242;28;20236;-78
2023/09/04 06:29:18;;;;;;;7.10;6.60;;;17.80;99.90;;;;;;10459377;28;20585;-78
2023/09/04 06:34:20;;;;;;;7.67;7.13;;;17.90;99.90;;;;;;10442733;28;20202;-78
2023/09/04 06:39:24;;;;;;;8.87;7.97;;;17.90;99.90;;;;;;10459590;28;20209;-78
2023/09/04 06:44:26;;;;;;;7.53;6.83;;;17.90;99.90;;;;;;10461364;28;20218;-78
2023/09/04 06:49:28;;;;;;;7.67;6.97;;;18.00;99.90;;;;;;10460659;28;20221;-78
2023/09/04 06:54:31;;;;;;;7.13;6.53;;;18.00;99.90;;;;;;10441365;28;20197;-78
2023/09/04 06:59:33;;;;;;;7.60;6.97;;;18.10;99.90;;;;;;10458655;28;20229;-78
2023/09/04 07:04:35;;;;;;;8.13;7.20;;;18.20;99.90;;;;;;10441127;28;20271;-78
2023/09/04 07:09:39;;;;;;;8.40;6.77;;;18.30;99.90;;;;;;10458699;28;20236;-78
2023/09/04 07:14:41;;;;;;;13.27;7.17;;;18.40;99.90;;;;;;10458678;28;20204;-78
2023/09/04 07:19:43;;;;;;;7.80;7.07;;;18.50;99.90;;;;;;10443149;28;20222;-78
2023/09/04 07:24:47;;;;;;;7.90;7.20;;;18.60;99.90;;;;;;10443246;28;20241;-78
2023/09/04 07:29:49;;;;;;;8.33;6.83;;;18.60;99.90;;;;;;10464321;28;20214;-78
2023/09/04 07:34:55;;;;;;;7.47;6.80;;;18.70;99.90;;;;;;10461830;28;20252;-78
2023/09/04 07:39:59;;;;;;;7.13;6.50;;;18.90;99.90;;;;;;10441368;28;20228;-78
2023/09/04 07:45:01;;;;;;;7.10;6.50;;;19.00;99.90;;;;;;10458741;28;20379;-78
2023/09/04 07:50:04;;;;;;;7.70;7.10;;;19.00;99.90;;;;;;10458986;28;20226;-78
2023/09/04 07:55:09;;;;;;;10.00;6.00;;;19.20;99.90;;;;;;10458250;28;20205;-78
2023/09/04 08:00:16;;;;;;;8.23;7.40;;;19.30;99.90;;;;;;10455405;28;20289;-78
2023/09/04 08:05:18;;;;;;;5.90;5.50;;;19.60;99.90;;;;;;10457734;28;20558;-78
2023/09/04 08:10:22;;;;;;;6.57;6.07;;;19.70;99.90;;;;;;10454943;28;20578;-78
2023/09/04 08:15:24;;;;;;;6.10;5.70;;;19.90;99.90;;;;;;10438514;28;20229;-78
2023/09/04 08:20:43;;;;;;;5.63;5.23;;;20.10;99.90;;;;;;10472498;28;20230;-78
2023/09/04 08:25:47;;;;;;;5.63;5.13;;;20.30;99.90;;;;;;10454785;28;20236;-78
2023/09/04 08:30:49;;;;;;;5.40;5.10;;;20.40;99.90;;;;;;10455334;28;20717;-79
2023/09/04 08:35:51;;;;;;;5.70;5.30;;;20.50;99.90;;;;;;10436008;28;20576;-78
2023/09/04 08:40:57;;;;;;;5.23;4.83;;;20.60;99.90;;;;;;10418510;28;20201;-78
2023/09/04 08:46:00;;;;;;;5.87;5.37;;;20.70;99.90;;;;;;10452483;28;20194;-78
2023/09/04 08:51:02;;;;;;;5.27;4.67;;;20.90;99.90;;;;;;10433038;28;20577;-78
2023/09/04 08:56:06;;;;;;;6.13;5.23;;;21.00;99.90;;;;;;10456161;28;20252;-78
2023/09/04 09:01:10;;;;;;;4.63;4.33;;;21.10;99.90;;;;;;10456516;28;20190;-79
2023/09/04 09:06:12;;;;;;;5.37;4.97;;;21.30;99.90;;;;;;10439642;28;20222;-79
2023/09/04 09:11:16;;;;;;;5.07;4.67;;;21.50;99.90;;;;;;10457238;28;20684;-79
2023/09/04 09:16:19;;;;;;;4.70;4.40;;;21.50;99.90;;;;;;10454068;28;20729;-78
2023/09/04 09:21:28;;;;;;;5.40;4.97;;;21.50;99.90;;;;;;10464973;28;20252;-79
2023/09/04 09:26:32;;;;;;;5.30;4.80;;;21.60;99.90;;;;;;10458333;28;20244;-78
2023/09/04 09:31:35;;;;;;;4.30;4.10;;;21.60;99.90;;;;;;10436712;28;20209;-78
2023/09/04 09:36:37;;;;;;;5.00;4.60;;;21.80;99.90;;;;;;10458446;28;20214;-79
2023/09/04 09:41:41;;;;;;;5.90;4.80;;;22.10;99.90;;;;;;10458191;28;20210;-79
2023/09/04 09:46:43;;;;;;;4.80;4.30;;;22.30;99.90;;;;;;10437030;28;20214;-79
2023/09/04 09:51:48;;;;;;;4.90;4.60;;;22.40;99.90;;;;;;10452048;28;20195;-79
2023/09/04 09:56:51;;;;;;;4.37;4.03;;;22.60;99.90;;;;;;10436932;28;20253;-79
2023/09/04 10:01:53;;;;;;;4.60;4.20;;;23.10;99.90;;;;;;10446011;28;20263;-79
2023/09/04 10:06:59;;;;;;;4.43;4.13;;;23.50;99.90;;;;;;10466385;28;20228;-79
2023/09/04 10:12:07;;;;;;;4.57;4.17;;;23.80;99.40;;;;;;10467047;28;20823;-79
2023/09/04 10:17:18;;;;;;;4.57;4.17;;;23.80;98.50;;;;;;10466328;28;20221;-79
2023/09/04 10:22:25;;;;;;;4.73;4.33;;;23.70;98.80;;;;;;10467312;28;20221;-79
2023/09/04 10:27:33;;;;;;;4.83;4.53;;;23.60;97.60;;;;;;10446495;28;20214;-79
2023/09/04 10:32:35;;;;;;;4.50;4.20;;;23.40;98.30;;;;;;10481364;28;20204;-79
2023/09/04 10:37:38;;;;;;;4.10;3.73;;;23.30;99.00;;;;;;10476897;28;20218;-79
2023/09/04 10:42:42;;;;;;;4.20;3.90;;;23.20;98.40;;;;;;10459986;28;20221;-79
2023/09/04 10:47:46;;;;;;;4.20;3.90;;;23.10;97.80;;;;;;10477834;28;20606;-80
2023/09/04 10:52:49;;;;;;;3.60;3.40;;;23.00;99.00;;;;;;10449554;28;20272;-80
2023/09/04 10:57:57;;;;;;;4.10;3.80;;;23.00;98.50;;;;;;10473865;28;20256;-80
2023/09/04 11:03:14;;;;;;;4.90;4.50;;;22.90;98.50;;;;;;10465331;28;20228;-80
2023/09/04 11:08:29;;;;;;;4.33;3.93;;;23.00;97.50;;;;;;10462599;28;20283;-80
2023/09/04 11:13:33;;;;;;;4.37;4.00;;;23.10;95.00;;;;;;10460530;28;20200;-80
2023/09/04 11:18:37;;;;;;;4.00;3.70;;;23.20;95.10;;;;;;10465749;28;20233;-80
2023/09/04 11:23:41;;;;;;;3.80;3.60;;;23.30;94.60;;;;;;10460697;28;20232;-80
2023/09/04 11:28:45;;;;;;;4.37;4.07;;;23.50;93.00;;;;;;10444790;28;20221;-80
2023/09/04 11:33:49;;;;;;;4.07;3.77;;;23.60;92.50;;;;;;10425212;28;20205;-80
2023/09/04 11:39:05;;;;;;;4.20;3.90;;;23.70;92.70;;;;;;10462022;28;20214;-79
2023/09/04 11:44:09;;;;;;;4.27;3.97;;;23.80;91.30;;;;;;10460918;28;20259;-80
2023/09/04 11:49:11;;;;;;;3.73;3.43;;;23.90;92.40;;;;;;10459643;28;20654;-79
2023/09/04 11:54:13;;;;;;;4.90;4.37;;;23.90;92.90;;;;;;10462273;28;20539;-80
2023/09/04 11:59:17;;;;;;;3.80;3.60;;;23.80;93.30;;;;;;10429717;23;20712;-80
2023/09/04 12:04:19;;;;;;;3.80;3.50;;;23.80;93.50;;;;;;10374794;28;20227;-79
2023/09/04 12:09:21;;;;;;;3.33;3.03;;;23.80;91.70;;;;;;10355038;28;20219;-79
2023/09/04 12:14:25;;;;;;;3.80;3.50;;;24.00;90.90;;;;;;10373711;28;20219;-80
2023/09/04 12:19:28;;;;;;;7.33;3.30;;;23.90;92.70;;;;;;10370995;28;20219;-76
2023/09/04 12:24:30;;;;;;;4.07;3.43;;;23.80;92.90;;;;;;10370662;28;20215;-79
2023/09/04 12:29:34;;;;;;;3.40;3.10;;;23.70;92.40;;;;;;10372785;28;20215;-79
2023/09/04 12:34:37;;;;;;;3.60;3.30;;;23.70;93.40;;;;;;10356629;28;20743;-79
2023/09/04 12:39:39;;;;;;;3.77;3.47;;;23.70;91.70;;;;;;10369652;28;20230;-79
2023/09/04 12:44:42;;;;;;;5.10;3.30;;;23.70;87.10;;;;;;10353947;28;20223;-80
2023/09/04 12:49:44;;;;;;;3.50;3.30;;;23.80;81.90;;;;;;10372061;28;20223;-80
2023/09/04 12:54:46;;;;;;;3.70;3.40;;;23.90;85.20;;;;;;10371611;28;20460;-80
2023/09/04 12:59:50;;;;;;;3.20;3.00;;;24.10;85.30;;;;;;10375037;28;20242;-80
2023/09/04 13:04:52;;;;;;;4.07;3.70;;;24.10;87.30;;;;;;10373430;28;20265;-80
2023/09/04 13:09:55;;;;;;;3.57;3.27;;;24.20;85.30;;;;;;10373471;28;20227;-80
2023/09/04 13:14:58;;;;;;;3.50;3.23;;;24.20;88.80;;;;;;10354259;28;20695;-80
2023/09/04 13:20:00;;;;;;;3.97;3.70;;;24.10;90.80;;;;;;10373427;28;20223;-80
2023/09/04 13:25:03;;;;;;;4.17;3.77;;;24.00;90.50;;;;;;10373308;28;20223;-79
2023/09/04 13:30:08;;;;;;;3.73;3.50;;;23.90;90.10;;;;;;10374306;28;20309;-80
2023/09/04 13:35:10;;;;;;;3.40;3.20;;;24.00;82.90;;;;;;10376310;28;20215;-79
2023/09/04 13:40:14;;;;;;;4.20;3.90;;;24.20;87.10;;;;;;10382852;28;20218;-79
2023/09/04 13:45:17;;;;;;;5.33;3.40;;;24.30;84.20;;;;;;10383024;28;20226;-79
2023/09/04 13:50:19;;;;;;;3.67;3.37;;;24.40;85.70;;;;;;10382154;28;20674;-79
2023/09/04 13:55:21;;;;;;;4.30;3.80;;;24.50;85.40;;;;;;10382601;28;20203;-79
2023/09/04 14:00:25;;;;;;;3.50;3.20;;;24.60;86.30;;;;;;10381004;28;20700;-78
2023/09/04 14:05:29;;;;;;;4.57;4.17;;;24.60;86.90;;;;;;10381393;28;20235;-79
2023/09/04 14:10:31;;;;;;;3.90;3.60;;;24.60;88.20;;;;;;10380609;28;20233;-79
2023/09/04 14:15:34;;;;;;;8.23;4.50;;;24.70;84.90;;;;;;10379574;28;20667;-79
2023/09/04 14:20:36;;;;;;;4.07;3.20;;;24.80;82.70;;;;;;10379429;28;20226;-79
2023/09/04 14:25:38;;;;;;;3.60;3.30;;;24.80;86.00;;;;;;10380371;28;20762;-79
2023/09/04 14:30:42;;;;;;;3.83;3.63;;;24.70;90.70;;;;;;10381180;28;20273;-80
2023/09/04 14:35:45;;;;;;;3.23;3.03;;;24.50;91.30;;;;;;10381379;28;20191;-80
2023/09/04 14:40:49;;;;;;;3.80;3.50;;;24.30;91.80;;;;;;10380168;28;20222;-79
2023/09/04 14:45:52;;;;;;;3.33;3.13;;;24.40;86.20;;;;;;10379353;28;20535;-80
2023/09/04 14:50:54;;;;;;;4.00;3.70;;;24.50;85.30;;;;;;10380447;28;20227;-80
2023/09/04 14:55:57;;;;;;;3.40;3.20;;;24.70;81.90;;;;;;10379904;28;20241;-80
2023/09/04 15:01:00;;;;;;;3.87;3.57;;;24.90;87.50;;;;;;10380244;28;20317;-80
2023/09/04 15:06:04;;;;;;;3.80;3.50;;;24.80;90.10;;;;;;10380526;28;20211;-79
2023/09/04 15:11:06;;;;;;;3.63;3.17;;;24.70;88.80;;;;;;10378417;28;20222;-79
2023/09/04 15:16:10;;;;;;;3.07;2.87;;;24.60;87.30;;;;;;10379861;28;20764;-79
2023/09/04 15:21:12;;;;;;;4.00;3.70;;;24.50;89.20;;;;;;10364527;28;20269;-79
2023/09/04 15:26:14;;;;;;;3.60;3.30;;;24.40;92.10;;;;;;10383972;28;20211;-79
2023/09/04 15:31:17;;;;;;;4.00;3.70;;;24.30;91.60;;;;;;10376053;28;20299;-78
2023/09/04 15:36:19;;;;;;;4.33;3.93;;;24.20;90.10;;;;;;10374942;28;20195;-80
2023/09/04 15:41:22;;;;;;;3.50;3.30;;;24.20;78.50;;;;;;10375651;28;20246;-78
2023/09/04 15:46:25;;;;;;;3.13;2.90;;;24.30;85.10;;;;;;10373824;28;20565;-80
2023/09/04 15:51:27;;;;;;;3.10;2.90;;;24.40;81.50;;;;;;10365276;28;20611;-79
2023/09/04 15:56:29;;;;;;;3.27;2.97;;;24.50;80.10;;;;;;10373838;28;20250;-79
2023/09/04 16:01:33;;;;;;;3.53;3.23;;;24.60;82.50;;;;;;10403219;28;20675;-79
2023/09/04 16:06:35;;;;;;;6.80;3.23;;;24.60;77.90;;;;;;10374606;28;20703;-79
2023/09/04 16:11:37;;;;;;;3.50;3.20;;;24.50;85.70;;;;;;10400764;28;20206;-78
2023/09/04 16:16:41;;;;;;;4.10;3.80;;;24.30;90.20;;;;;;10324907;28;20311;-79
2023/09/04 16:21:43;;;;;;;3.60;3.00;;;24.10;92.20;;;;;;10338011;28;20255;-79
2023/09/04 16:26:46;;;;;;;3.50;3.27;;;23.90;93.50;;;;;;10376405;28;20622;-78
2023/09/04 16:31:50;;;;;;;3.00;2.80;;;23.70;94.30;;;;;;10416767;28;20260;-79
2023/09/04 16:36:52;;;;;;;3.77;3.50;;;23.60;94.10;;;;;;10402140;28;20218;-80
2023/09/04 16:41:54;;;;;;;7.70;3.87;;;23.50;95.70;;;;;;10382367;28;20195;-79
2023/09/04 16:46:57;;;;;;;3.70;3.40;;;23.40;94.60;;;;;;10390727;28;20234;-79
2023/09/04 16:52:00;;;;;;;3.83;3.60;;;23.40;95.30;;;;;;10412587;28;20551;-79
2023/09/04 16:57:02;;;;;;;3.50;3.27;;;23.20;96.70;;;;;;10396580;28;20219;-79
2023/09/04 17:02:06;;;;;;;3.57;3.27;;;23.20;96.00;;;;;;10375880;28;20245;-79
2023/09/04 17:07:08;;;;;;;5.87;5.37;;;23.10;96.00;;;;;;10404422;28;20684;-78
2023/09/04 17:12:10;;;;;;;4.83;4.50;;;23.00;97.80;;;;;;10409100;28;20210;-79
2023/09/04 17:17:14;;;;;;;5.10;4.70;;;22.90;97.90;;;;;;10374212;28;20218;-79
2023/09/04 17:22:16;;;;;;;4.40;4.10;;;22.80;99.30;;;;;;10373894;28;20206;-79
2023/09/04 17:27:18;;;;;;;3.93;3.67;;;22.70;99.90;;;;;;10411475;28;20273;-79
2023/09/04 17:32:22;;;;;;;3.70;3.40;;;22.60;99.60;;;;;;10387335;28;20198;-79
2023/09/04 17:37:24;;;;;;;3.50;3.20;;;22.60;96.20;;;;;;10374905;28;20214;-79
2023/09/04 17:42:26;;;;;;;5.87;5.40;;;22.70;95.70;;;;;;10382936;28;20253;-79
2023/09/04 17:47:29;;;;;;;4.20;3.80;;;22.80;95.40;;;;;;10380101;28;20238;-79
2023/09/04 17:52:32;;;;;;;4.20;3.50;;;22.80;95.90;;;;;;10389505;28;20687;-79
2023/09/04 17:57:39;;;;;;;4.40;4.00;;;22.80;96.10;;;;;;10394700;22;20297;-79
2023/09/04 18:02:45;;;;;;;3.90;3.60;;;22.70;96.90;;;;;;10336653;28;20545;-79
2023/09/04 18:07:50;;;;;;;5.00;4.60;;;22.60;97.70;;;;;;10332377;28;20212;-79
2023/09/04 18:12:53;;;;;;;4.90;4.50;;;22.50;98.70;;;;;;10329110;28;20691;-79
2023/09/04 18:17:56;;;;;;;5.20;4.77;;;22.40;99.90;;;;;;10332543;28;20294;-79
2023/09/04 18:22:58;;;;;;;5.70;4.90;;;22.30;99.90;;;;;;10334070;28;20211;-80
2023/09/04 18:28:00;;;;;;;4.70;4.40;;;22.20;99.30;;;;;;10340659;28;20232;-79
2023/09/04 18:33:04;;;;;;;4.63;4.33;;;22.10;99.50;;;;;;10340483;28;20567;-79
2023/09/04 18:38:06;;;;;;;4.90;4.50;;;22.10;99.60;;;;;;10342006;28;20261;-79
2023/09/04 18:43:09;;;;;;;5.10;4.70;;;22.00;99.50;;;;;;10342351;28;20251;-79
2023/09/04 18:48:12;;;;;;;4.93;4.53;;;21.90;99.70;;;;;;10358763;28;20573;-79
2023/09/04 18:53:14;;;;;;;6.20;5.60;;;21.80;99.60;;;;;;10350328;28;20204;-79
2023/09/04 18:58:16;;;;;;;5.77;5.37;;;21.80;99.70;;;;;;10343306;28;20240;-79
2023/09/04 19:03:20;;;;;;;6.00;5.50;;;21.70;99.90;;;;;;10340042;28;20604;-79
2023/09/04 19:08:23;;;;;;;7.07;6.37;;;21.60;99.90;;;;;;10335008;28;20220;-79
2023/09/04 19:13:25;;;;;;;5.40;4.90;;;21.60;99.90;;;;;;10335844;28;20335;-79
2023/09/04 19:18:28;;;;;;;5.70;5.20;;;21.50;99.90;;;;;;10341001;28;20237;-79
2023/09/04 19:23:32;;;;;;;6.23;5.73;;;21.50;99.90;;;;;;10338200;28;20220;-79
2023/09/04 19:28:36;;;;;;;6.67;6.03;;;21.50;99.90;;;;;;10337762;28;20219;-79
2023/09/04 19:33:40;;;;;;;6.73;6.00;;;21.40;99.90;;;;;;10333336;28;20572;-78
2023/09/04 19:38:42;;;;;;;5.67;5.07;;;21.40;99.90;;;;;;10338215;28;20219;-79
2023/09/04 19:43:44;;;;;;;6.23;5.83;;;21.40;99.90;;;;;;10336161;28;20298;-79
2023/09/04 19:48:48;;;;;;;6.17;5.67;;;21.40;99.90;;;;;;10333007;28;20792;-79
2023/09/04 19:53:50;;;;;;;5.67;5.17;;;21.30;99.90;;;;;;10338175;28;20265;-79
2023/09/04 19:58:52;;;;;;;6.63;6.13;;;21.30;99.90;;;;;;10335626;28;20709;-79
2023/09/04 20:03:55;;;;;;;5.60;5.20;;;21.30;99.90;;;;;;10337132;28;20219;-79
2023/09/04 20:08:57;;;;;;;7.33;5.50;;;21.30;99.90;;;;;;10336868;28;20211;-79
2023/09/04 20:14:01;;;;;;;5.90;5.43;;;21.20;99.90;;;;;;10335540;28;20200;-79
2023/09/04 20:19:05;;;;;;;5.80;5.30;;;21.20;99.90;;;;;;10351142;28;20287;-79
2023/09/04 20:24:07;;;;;;;6.23;5.73;;;21.20;99.90;;;;;;10336521;28;20255;-79
2023/09/04 20:29:09;;;;;;;6.37;5.77;;;21.20;99.90;;;;;;10336112;28;20224;-79
2023/09/04 20:34:13;;;;;;;6.17;5.67;;;21.20;99.90;;;;;;10335555;28;20196;-79
2023/09/04 20:39:15;;;;;;;5.90;5.50;;;21.20;99.90;;;;;;10335193;28;20212;-79
2023/09/04 20:44:17;;;;;;;6.13;5.53;;;21.20;99.90;;;;;;10334969;28;20282;-79
2023/09/04 20:49:21;;;;;;;5.70;5.20;;;21.20;99.90;;;;;;10332336;28;20235;-79
2023/09/04 20:54:23;;;;;;;5.90;5.50;;;21.20;99.90;;;;;;10335971;28;20223;-79
2023/09/04 20:59:25;;;;;;;7.10;5.80;;;21.10;99.90;;;;;;10336409;28;20306;-79
2023/09/04 21:04:29;;;;;;;6.07;5.67;;;21.20;99.90;;;;;;10334020;28;20294;-79
2023/09/04 23:22:33;;;;;;;4.27;3.87;;;20.80;98.40;;;;;;10343378;28;20261;-78
2023/09/04 23:27:36;;;;;;;8.93;3.53;;;20.70;98.10;;;;;;10338050;28;20224;-79
2023/09/04 23:33:01;;;;;;;4.33;3.93;;;20.70;98.10;;;;;;10339373;28;20203;-78
2023/09/04 23:38:06;;;;;;;4.40;4.00;;;20.60;97.50;;;;;;10336896;28;20219;-78
2023/09/04 23:48:29;;;;;;;4.20;3.90;;;20.50;97.90;;;;;;10339579;28;20227;-79
2023/09/04 23:53:31;;;;;;;3.10;2.90;;;20.50;96.40;;;;;;10339864;28;20581;-79
2023/09/04 23:58:37;;;;;;;3.23;3.03;;;20.50;95.80;;;;;;10332260;23;20241;-81
